createdAt,value
2018-05-03T00:00:28.946Z,5.80
2018-05-03T00:02:56.522Z,5.40
2018-05-03T00:05:24.077Z,6.03
2018-05-03T00:07:51.602Z,6.23
2018-05-03T00:10:19.135Z,6.60
2018-05-03T00:12:46.750Z,6.03
2018-05-03T00:15:14.257Z,6.10
2018-05-03T00:17:41.793Z,5.90
2018-05-03T00:20:09.292Z,5.30
2018-05-03T00:22:36.894Z,6.30
2018-05-03T00:25:04.447Z,5.67
2018-05-03T00:27:32.005Z,5.70
2018-05-03T00:29:59.525Z,5.23
2018-05-03T00:32:27.103Z,5.73
2018-05-03T00:34:54.686Z,6.03
2018-05-03T00:37:22.245Z,6.60
2018-05-03T00:39:49.757Z,6.05
2018-05-03T00:42:17.294Z,6.23
2018-05-03T00:44:44.837Z,6.17
2018-05-03T00:47:12.386Z,6.30
2018-05-03T00:49:39.917Z,6.53
2018-05-03T00:52:07.469Z,5.60
2018-05-03T00:54:46.741Z,6.53
2018-05-03T00:57:14.395Z,6.43
2018-05-03T00:59:41.958Z,6.43
2018-05-03T01:02:09.524Z,6.57
2018-05-03T01:04:37.033Z,6.67
2018-05-03T01:07:04.569Z,7.10
2018-05-03T01:09:32.090Z,7.50
2018-05-03T01:11:59.742Z,6.40
2018-05-03T01:14:27.261Z,6.53
2018-05-03T01:16:54.874Z,7.27
2018-05-03T01:19:22.441Z,6.30
2018-05-03T01:21:49.995Z,7.10
2018-05-03T01:24:17.553Z,7.03
2018-05-03T01:26:45.102Z,7.93
2018-05-03T01:29:12.670Z,7.97
2018-05-03T01:31:40.230Z,7.80
2018-05-03T01:34:07.789Z,8.07
2018-05-03T01:36:35.464Z,8.82
2018-05-03T01:39:03.018Z,7.20
2018-05-03T01:41:30.568Z,7.47
2018-05-03T01:43:58.117Z,7.80
2018-05-03T01:46:26.519Z,8.27
2018-05-03T01:48:54.078Z,8.43
2018-05-03T01:51:21.600Z,8.23
2018-05-03T01:53:49.179Z,8.00
2018-05-03T01:56:16.729Z,7.50
2018-05-03T01:58:44.301Z,7.80
2018-05-03T02:01:11.832Z,7.47
2018-05-03T02:03:39.387Z,7.43
2018-05-03T02:06:06.912Z,6.93
2018-05-03T02:08:34.457Z,6.97
2018-05-03T02:11:01.992Z,6.80
2018-05-03T02:13:29.543Z,8.07
2018-05-03T02:15:57.066Z,6.80
2018-05-03T02:18:24.697Z,6.20
2018-05-03T02:20:52.353Z,7.23
2018-05-03T02:23:20.603Z,6.78
2018-05-03T02:25:48.129Z,8.33
2018-05-03T02:28:15.740Z,7.33
2018-05-03T02:30:43.305Z,8.00
2018-05-03T02:33:10.886Z,7.60
2018-05-03T02:35:38.417Z,7.60
2018-05-03T02:38:05.970Z,6.97
2018-05-03T02:40:33.498Z,7.27
2018-05-03T02:43:01.047Z,6.90
2018-05-03T02:45:28.668Z,6.75
2018-05-03T02:47:56.333Z,7.73
2018-05-03T02:50:23.885Z,7.93
2018-05-03T02:52:51.539Z,7.73
2018-05-03T02:55:19.082Z,7.67
2018-05-03T02:58:04.112Z,7.10
2018-05-03T03:00:49.440Z,7.03
2018-05-03T03:03:34.721Z,8.30
2018-05-03T03:06:14.159Z,8.67
2018-05-03T03:12:28.652Z,7.80
2018-05-03T03:15:13.502Z,7.55
2018-05-03T03:21:13.033Z,8.07
2018-05-03T03:23:58.238Z,7.67
2018-05-03T03:29:52.037Z,7.80
2018-05-03T03:32:31.342Z,9.27
2018-05-03T03:38:21.751Z,8.47
2018-05-03T03:44:04.576Z,8.30
2018-05-03T03:46:32.158Z,8.13
2018-05-03T03:48:59.661Z,9.20
2018-05-03T03:51:27.278Z,8.93
2018-05-03T03:53:54.837Z,9.13
2018-05-03T03:56:22.389Z,7.83
2018-05-03T03:58:50.913Z,7.32
2018-05-03T04:01:18.436Z,9.20
2018-05-03T04:03:46.095Z,9.87
2018-05-03T04:06:13.625Z,11.48
2018-05-03T04:08:41.209Z,11.50
2018-05-03T04:11:08.771Z,11.43
2018-05-03T04:13:36.363Z,11.87
2018-05-03T04:16:03.929Z,11.83
2018-05-03T04:18:43.122Z,12.27
2018-05-03T04:21:22.689Z,11.10
2018-05-03T04:24:12.866Z,10.67
2018-05-03T04:26:40.417Z,11.77
2018-05-03T04:29:07.994Z,10.60
2018-05-03T04:31:35.522Z,10.77
2018-05-03T04:34:03.196Z,10.13
2018-05-03T04:36:30.727Z,10.35
2018-05-03T04:38:58.319Z,9.50
2018-05-03T04:41:25.832Z,10.17
2018-05-03T04:43:53.381Z,9.77
2018-05-03T04:46:20.910Z,9.03
2018-05-03T04:48:48.546Z,9.90
2018-05-03T04:51:16.015Z,8.47
2018-05-03T04:53:43.592Z,8.17
2018-05-03T04:56:11.221Z,9.63
2018-05-03T04:58:38.795Z,8.63
2018-05-03T05:01:06.350Z,8.97
2018-05-03T05:03:34.158Z,8.60
2018-05-03T05:06:01.853Z,9.80
2018-05-03T05:08:29.455Z,10.23
2018-05-03T05:10:56.956Z,9.03
2018-05-03T05:13:24.560Z,10.17
2018-05-03T05:15:52.117Z,10.47
2018-05-03T05:18:19.677Z,9.93
2018-05-03T05:20:47.234Z,9.80
2018-05-03T05:23:14.814Z,10.43
2018-05-03T05:25:43.545Z,10.88
2018-05-03T05:28:11.125Z,11.57
2018-05-03T05:30:41.302Z,10.98
2018-05-03T05:33:09.029Z,11.27
2018-05-03T05:35:36.580Z,12.27
2018-05-03T05:38:04.181Z,11.60
2018-05-03T05:40:31.716Z,11.37
2018-05-03T05:42:59.235Z,11.27
2018-05-03T05:45:26.790Z,10.50
2018-05-03T05:47:54.395Z,10.90
2018-05-03T05:50:21.944Z,10.60
2018-05-03T05:52:49.470Z,10.80
2018-05-03T05:55:17.053Z,10.73
2018-05-03T05:57:44.573Z,11.10
2018-05-03T06:00:12.184Z,11.53
2018-05-03T06:02:39.705Z,13.37
2018-05-03T06:05:09.423Z,12.02
2018-05-03T06:07:37.139Z,11.47
2018-05-03T06:10:08.478Z,11.27
2018-05-03T06:12:36.162Z,11.17
2018-05-03T06:15:03.714Z,10.33
2018-05-03T06:17:31.249Z,11.30
2018-05-03T06:19:58.832Z,10.30
2018-05-03T06:22:26.381Z,10.57
2018-05-03T06:24:54.138Z,10.40
2018-05-03T06:27:21.677Z,9.93
2018-05-03T06:29:49.364Z,9.93
2018-05-03T06:32:19.705Z,10.35
2018-05-03T06:34:50.238Z,9.17
2018-05-03T06:37:18.587Z,9.83
2018-05-03T06:39:46.345Z,10.23
2018-05-03T06:42:15.465Z,9.80
2018-05-03T06:44:45.542Z,9.48
2018-05-03T06:47:13.121Z,9.77
2018-05-03T06:49:41.353Z,9.15
2018-05-03T06:52:11.981Z,9.93
2018-05-03T06:54:40.307Z,10.23
2018-05-03T06:57:07.877Z,8.77
2018-05-03T06:59:39.111Z,9.17
2018-05-03T07:02:10.419Z,9.40
2018-05-03T07:04:43.958Z,8.40
2018-05-03T07:07:15.953Z,8.15
2018-05-03T07:09:46.822Z,8.70
2018-05-03T07:12:18.224Z,7.93
2018-05-03T07:14:49.169Z,7.70
2018-05-03T07:17:20.497Z,8.00
2018-05-03T07:19:52.080Z,7.80
2018-05-03T07:22:23.072Z,6.87
2018-05-03T07:24:57.028Z,7.03
2018-05-03T07:27:29.958Z,7.13
2018-05-03T07:30:01.244Z,6.40
2018-05-03T07:32:35.200Z,5.83
2018-05-03T07:35:09.093Z,6.20
2018-05-03T07:37:40.013Z,5.30
2018-05-03T07:40:12.598Z,6.03
2018-05-03T07:42:44.078Z,5.73
2018-05-03T07:45:15.052Z,5.80
2018-05-03T07:47:45.395Z,5.53
2018-05-03T07:50:16.565Z,5.47
2018-05-03T07:52:45.806Z,5.87
2018-05-03T07:55:13.506Z,5.10
2018-05-03T07:57:47.327Z,5.45
2018-05-03T08:00:18.269Z,4.93
2018-05-03T08:02:49.568Z,5.50
2018-05-03T08:05:21.265Z,5.23
2018-05-03T08:07:52.714Z,5.73
2018-05-03T08:10:24.674Z,5.57
2018-05-03T08:12:56.369Z,5.20
2018-05-03T08:15:29.589Z,5.70
2018-05-03T08:18:03.097Z,5.57
2018-05-03T08:20:36.721Z,5.17
2018-05-03T08:23:08.383Z,4.80
2018-05-03T08:25:41.289Z,4.12
2018-05-03T08:28:13.888Z,4.13
2018-05-03T08:30:45.997Z,4.47
2018-05-03T08:33:17.392Z,5.07
2018-05-03T08:35:48.554Z,5.40
2018-05-03T08:38:20.028Z,5.30
2018-05-03T08:40:53.648Z,5.57
2018-05-03T08:43:24.717Z,5.27
2018-05-03T08:45:56.016Z,5.70
2018-05-03T08:48:30.020Z,5.97
2018-05-03T08:51:02.718Z,6.70
2018-05-03T08:53:35.638Z,6.45
2018-05-03T08:56:09.142Z,6.00
2018-05-03T08:58:40.391Z,5.90
2018-05-03T09:01:13.819Z,5.10
2018-05-03T09:03:48.391Z,5.50
2018-05-03T09:06:21.672Z,5.83
2018-05-03T09:08:54.677Z,6.17
2018-05-03T09:11:27.889Z,5.57
2018-05-03T09:14:02.434Z,5.77
2018-05-03T09:16:35.618Z,4.63
2018-05-03T09:19:12.262Z,4.93
2018-05-03T09:21:45.314Z,5.23
2018-05-03T09:24:16.788Z,5.27
2018-05-03T09:26:51.858Z,5.33
2018-05-03T09:29:23.554Z,5.57
2018-05-03T09:31:59.821Z,5.00
2018-05-03T09:34:33.345Z,5.00
2018-05-03T09:37:06.205Z,4.53
2018-05-03T09:39:39.300Z,4.80
2018-05-03T09:42:15.681Z,5.57
2018-05-03T09:44:49.872Z,5.13
2018-05-03T09:47:26.155Z,5.60
2018-05-03T09:49:57.189Z,5.43
2018-05-03T09:52:29.958Z,4.75
2018-05-03T09:55:01.862Z,5.10
2018-05-03T09:57:35.789Z,4.93
2018-05-03T10:00:09.232Z,5.07
2018-05-03T10:02:44.221Z,5.10
2018-05-03T10:05:16.876Z,4.50
2018-05-03T10:07:49.607Z,4.47
2018-05-03T10:10:22.380Z,4.30
2018-05-03T10:13:01.151Z,4.00
2018-05-03T10:18:08.997Z,3.50
2018-05-03T10:20:44.107Z,3.90
2018-05-03T10:25:53.202Z,3.43
2018-05-03T10:28:28.790Z,3.43
2018-05-03T10:33:37.500Z,6.30
2018-05-03T10:36:08.920Z,9.30
2018-05-03T10:38:43.881Z,6.07
2018-05-03T10:41:18.009Z,4.82
2018-05-03T10:43:51.025Z,5.05
2018-05-03T10:46:22.363Z,4.17
2018-05-03T10:48:54.015Z,3.60
2018-05-03T10:51:26.117Z,4.50
2018-05-03T10:53:58.100Z,3.47
2018-05-03T10:56:31.374Z,3.13
2018-05-03T10:59:03.540Z,4.55
2018-05-03T11:01:36.279Z,6.33
2018-05-03T11:04:09.201Z,6.10
2018-05-03T11:06:40.904Z,4.80
2018-05-03T11:09:13.679Z,5.00
2018-05-03T11:11:44.700Z,4.95
2018-05-03T11:14:16.082Z,4.27
2018-05-03T11:16:45.075Z,5.13
2018-05-03T11:19:15.628Z,5.10
2018-05-03T11:21:48.651Z,3.47
2018-05-03T11:24:16.375Z,3.67
2018-05-03T11:26:46.082Z,3.50
2018-05-03T11:29:15.227Z,4.80
2018-05-03T11:31:48.358Z,4.60
2018-05-03T11:34:16.220Z,5.57
2018-05-03T11:36:44.873Z,5.37
2018-05-03T11:39:12.977Z,4.43
2018-05-03T11:41:41.766Z,4.70
2018-05-03T11:44:09.345Z,6.57
2018-05-03T11:46:37.019Z,6.57
2018-05-03T11:49:05.546Z,5.97
2018-05-03T11:51:33.141Z,6.37
2018-05-03T11:54:00.968Z,5.27
2018-05-03T11:56:28.599Z,5.97
2018-05-03T11:58:56.228Z,5.70
2018-05-03T12:01:23.831Z,6.30
2018-05-03T12:03:51.391Z,6.00
2018-05-03T12:06:18.902Z,5.87
2018-05-03T12:08:46.492Z,5.15
2018-05-03T12:11:14.142Z,5.45
2018-05-03T12:13:42.818Z,5.03
2018-05-03T12:16:11.944Z,4.47
2018-05-03T12:18:39.643Z,4.20
2018-05-03T12:21:11.844Z,4.28
2018-05-03T12:23:41.513Z,4.70
2018-05-03T12:26:09.427Z,3.60
2018-05-03T12:28:37.029Z,3.80
2018-05-03T12:31:04.761Z,3.90
2018-05-03T12:33:32.311Z,4.07
2018-05-03T12:36:00.162Z,4.20
2018-05-03T12:38:27.713Z,3.23
2018-05-03T12:40:55.716Z,3.63
2018-05-03T12:43:24.681Z,3.43
2018-05-03T12:45:52.696Z,4.07
2018-05-03T12:48:22.473Z,3.97
2018-05-03T12:50:50.128Z,3.57
2018-05-03T12:53:18.227Z,3.43
2018-05-03T12:55:47.550Z,3.40
2018-05-03T12:58:17.132Z,3.33
2018-05-03T13:00:44.764Z,3.10
2018-05-03T13:03:12.941Z,2.80
2018-05-03T13:05:41.234Z,2.90
2018-05-03T13:08:08.766Z,3.15
2018-05-03T13:10:36.344Z,3.07
2018-05-03T13:13:07.819Z,3.00
2018-05-03T13:15:35.999Z,3.00
2018-05-03T13:18:05.648Z,3.00
2018-05-03T13:20:33.422Z,2.40
2018-05-03T13:23:01.017Z,2.20
2018-05-03T13:25:29.518Z,2.30
2018-05-03T13:27:57.568Z,2.50
2018-05-03T13:30:26.337Z,2.50
2018-05-03T13:32:54.213Z,2.07
2018-05-03T13:35:22.046Z,2.57
2018-05-03T13:37:49.569Z,2.40
2018-05-03T13:40:17.649Z,2.10
2018-05-03T13:42:45.178Z,2.20
2018-05-03T13:45:12.750Z,2.33
2018-05-03T13:47:41.697Z,1.97
2018-05-03T13:50:09.484Z,2.13
2018-05-03T13:52:39.358Z,2.20
2018-05-03T13:55:10.233Z,2.08
2018-05-03T13:57:37.913Z,2.67
2018-05-03T14:00:07.689Z,2.60
2018-05-03T14:02:35.217Z,2.03
2018-05-03T14:05:02.818Z,2.10
2018-05-03T14:07:32.849Z,2.17
2018-05-03T14:10:00.651Z,1.80
2018-05-03T14:12:28.878Z,2.17
2018-05-03T14:14:57.155Z,2.17
2018-05-03T14:17:27.413Z,2.10
2018-05-03T14:19:57.708Z,2.13
2018-05-03T14:22:25.567Z,1.90
2018-05-03T14:24:53.137Z,2.10
2018-05-03T14:27:20.896Z,2.10
2018-05-03T14:29:48.466Z,1.90
2018-05-03T14:32:15.994Z,1.95
2018-05-03T14:34:43.523Z,1.80
2018-05-03T14:37:11.076Z,1.60
2018-05-03T14:39:38.681Z,1.90
2018-05-03T14:42:06.253Z,2.23
2018-05-03T14:44:33.780Z,1.80
2018-05-03T14:47:02.320Z,1.70
2018-05-03T14:49:29.861Z,1.83
2018-05-03T14:51:57.440Z,1.80
2018-05-03T14:54:25.013Z,2.07
2018-05-03T14:56:54.708Z,2.00
2018-05-03T14:59:24.693Z,2.00
2018-05-03T15:01:55.405Z,1.87
2018-05-03T15:04:23.517Z,1.80
2018-05-03T15:06:51.700Z,1.83
2018-05-03T15:09:19.308Z,2.00
2018-05-03T15:11:50.613Z,2.00
2018-05-03T15:14:18.156Z,1.90
2018-05-03T15:16:46.215Z,1.70
2018-05-03T15:19:13.773Z,2.07
2018-05-03T15:21:41.315Z,2.10
2018-05-03T15:24:08.871Z,2.70
2018-05-03T15:26:37.171Z,2.27
2018-05-03T15:29:04.793Z,2.47
2018-05-03T15:31:33.375Z,2.67
2018-05-03T15:34:00.926Z,2.20
2018-05-03T15:36:28.501Z,1.90
2018-05-03T15:38:58.097Z,1.60
2018-05-03T15:41:25.657Z,2.00
2018-05-03T15:43:53.246Z,1.70
2018-05-03T15:46:20.931Z,2.03
2018-05-03T15:48:49.302Z,2.10
2018-05-03T15:51:17.288Z,2.10
2018-05-03T15:53:44.892Z,2.35
2018-05-03T15:56:13.209Z,4.47
2018-05-03T15:58:40.874Z,4.40
2018-05-03T16:01:09.083Z,2.45
2018-05-03T16:03:36.729Z,2.20
2018-05-03T16:06:04.277Z,2.30
2018-05-03T16:08:33.489Z,2.30
2018-05-03T16:11:04.884Z,2.57
2018-05-03T16:13:33.674Z,2.20
2018-05-03T16:16:02.287Z,2.20
2018-05-03T16:18:33.178Z,1.93
2018-05-03T16:21:04.585Z,2.20
2018-05-03T16:23:33.771Z,2.30
2018-05-03T16:26:06.158Z,2.20
2018-05-03T16:28:34.327Z,2.30
2018-05-03T16:31:02.128Z,1.93
2018-05-03T16:33:29.863Z,2.50
2018-05-03T16:35:57.657Z,1.77
2018-05-03T16:38:25.460Z,2.17
2018-05-03T16:40:53.446Z,2.00
2018-05-03T16:43:21.487Z,1.60
2018-05-03T16:45:49.194Z,2.10
2018-05-03T16:48:17.244Z,2.57
2018-05-03T16:50:49.063Z,2.10
2018-05-03T16:53:16.947Z,2.50
2018-05-03T16:55:46.144Z,2.20
2018-05-03T16:58:13.958Z,2.10
2018-05-03T17:00:41.712Z,2.60
2018-05-03T17:03:09.288Z,2.60
2018-05-03T17:05:39.325Z,2.40
2018-05-03T17:08:07.166Z,2.23
2018-05-03T17:10:35.670Z,2.07
2018-05-03T17:13:04.833Z,2.40
2018-05-03T17:15:35.544Z,2.23
2018-05-03T17:18:05.660Z,2.40
2018-05-03T17:20:34.073Z,2.43
2018-05-03T17:23:02.032Z,2.30
2018-05-03T17:25:29.653Z,2.73
2018-05-03T17:27:57.467Z,2.50
2018-05-03T17:30:25.205Z,2.20
2018-05-03T17:32:53.162Z,2.27
2018-05-03T17:35:20.937Z,2.80
2018-05-03T17:37:48.803Z,2.70
2018-05-03T17:40:16.754Z,2.22
2018-05-03T17:42:44.755Z,3.00
2018-05-03T17:45:12.622Z,2.80
2018-05-03T17:47:43.279Z,3.30
2018-05-03T17:50:11.478Z,2.90
2018-05-03T17:52:41.422Z,3.37
2018-05-03T17:55:10.598Z,2.93
2018-05-03T17:57:39.386Z,2.90
2018-05-03T18:00:09.240Z,2.67
2018-05-03T18:02:37.778Z,2.63
2018-05-03T18:05:10.026Z,3.23
2018-05-03T18:07:38.826Z,2.90
2018-05-03T18:10:08.168Z,2.83
2018-05-03T18:12:38.446Z,2.83
2018-05-03T18:15:08.432Z,3.13
2018-05-03T18:17:36.302Z,2.77
2018-05-03T18:20:06.572Z,3.13
2018-05-03T18:22:34.105Z,3.17
2018-05-03T18:25:01.682Z,3.77
2018-05-03T18:27:29.210Z,3.30
2018-05-03T18:29:59.642Z,3.40
2018-05-03T18:32:30.597Z,2.80
2018-05-03T18:34:58.617Z,3.47
2018-05-03T18:37:26.142Z,3.67
2018-05-03T18:39:53.717Z,3.40
2018-05-03T18:42:21.524Z,3.20
2018-05-03T18:44:49.288Z,2.90
2018-05-03T18:47:16.826Z,2.83
2018-05-03T18:49:44.495Z,3.40
2018-05-03T18:52:12.023Z,2.97
2018-05-03T18:54:39.700Z,3.67
2018-05-03T18:57:07.182Z,3.63
2018-05-03T18:59:34.741Z,3.03
2018-05-03T19:02:03.284Z,2.70
2018-05-03T19:04:30.986Z,2.97
2018-05-03T19:06:58.546Z,3.20
2018-05-03T19:09:26.473Z,3.67
2018-05-03T19:11:56.318Z,3.80
2018-05-03T19:14:25.132Z,2.97
2018-05-03T19:16:52.905Z,3.17
2018-05-03T19:19:20.581Z,2.75
2018-05-03T19:21:48.100Z,2.60
2018-05-03T19:24:15.936Z,2.97
2018-05-03T19:26:43.490Z,2.80
2018-05-03T19:29:11.069Z,3.15
2018-05-03T19:31:38.591Z,2.70
2018-05-03T19:34:06.141Z,2.83
2018-05-03T19:36:34.147Z,2.77
2018-05-03T19:39:01.754Z,2.80
2018-05-03T19:41:29.622Z,2.90
2018-05-03T19:43:57.265Z,3.08
2018-05-03T19:46:24.926Z,3.23
2018-05-03T19:48:53.006Z,3.20
2018-05-03T19:51:21.009Z,3.27
2018-05-03T19:53:48.538Z,3.60
2018-05-03T19:56:16.111Z,3.57
2018-05-03T19:58:44.073Z,3.67
2018-05-03T20:01:11.821Z,3.53
2018-05-03T20:03:39.394Z,6.85
2018-05-03T20:06:06.974Z,3.20
2018-05-03T20:08:34.502Z,3.33
2018-05-03T20:11:02.174Z,3.23
2018-05-03T20:13:29.881Z,3.00
2018-05-03T20:15:57.485Z,3.57
2018-05-03T20:18:25.433Z,3.60
2018-05-03T20:20:55.953Z,3.13
2018-05-03T20:23:24.038Z,3.60
2018-05-03T20:25:51.775Z,3.62
2018-05-03T20:28:19.364Z,2.90
2018-05-03T20:30:47.471Z,3.15
2018-05-03T20:33:15.174Z,3.50
2018-05-03T20:35:43.049Z,3.90
2018-05-03T20:38:10.751Z,4.05
2018-05-03T20:40:38.530Z,3.87
2018-05-03T20:43:06.109Z,3.90
2018-05-03T20:45:34.785Z,3.30
2018-05-03T20:48:02.429Z,4.17
2018-05-03T20:50:30.134Z,3.50
2018-05-03T20:52:57.686Z,3.70
2018-05-03T20:55:25.387Z,3.47
2018-05-03T20:57:53.474Z,3.50
2018-05-03T21:00:21.073Z,4.10
2018-05-03T21:02:48.625Z,4.40
2018-05-03T21:05:16.256Z,4.27
2018-05-03T21:07:44.156Z,4.47
2018-05-03T21:10:11.705Z,4.80
2018-05-03T21:12:39.239Z,5.23
2018-05-03T21:15:06.813Z,4.63
2018-05-03T21:17:34.339Z,4.80
2018-05-03T21:20:01.896Z,4.03
2018-05-03T21:22:29.581Z,3.50
2018-05-03T21:24:59.640Z,3.67
2018-05-03T21:27:27.665Z,3.20
2018-05-03T21:29:55.613Z,3.30
2018-05-03T21:32:23.424Z,3.60
2018-05-03T21:34:51.576Z,3.45
2018-05-03T21:37:19.283Z,3.20
2018-05-03T21:39:46.806Z,3.65
2018-05-03T21:42:14.460Z,3.30
2018-05-03T21:44:42.512Z,3.23
2018-05-03T21:47:10.141Z,3.17
2018-05-03T21:49:37.661Z,3.80
2018-05-03T21:52:05.302Z,3.40
2018-05-03T21:54:32.947Z,3.40
2018-05-03T21:57:00.553Z,3.03
2018-05-03T21:59:28.250Z,3.23
2018-05-03T22:01:56.061Z,3.08
2018-05-03T22:04:23.841Z,3.30
2018-05-03T22:06:51.601Z,3.03
2018-05-03T22:09:19.184Z,3.67
2018-05-03T22:11:46.840Z,2.83
2018-05-03T22:14:14.366Z,3.37
2018-05-03T22:16:41.917Z,3.17
2018-05-03T22:19:09.441Z,3.40
2018-05-03T22:21:37.321Z,3.47
2018-05-03T22:24:04.851Z,3.37
2018-05-03T22:26:32.398Z,3.17
2018-05-03T22:29:00.049Z,3.10
2018-05-03T22:31:27.708Z,2.83
2018-05-03T22:33:55.458Z,3.30
2018-05-03T22:36:23.015Z,3.47
2018-05-03T22:38:50.543Z,3.40
2018-05-03T22:41:18.536Z,3.47
2018-05-03T22:43:46.571Z,3.30
2018-05-03T22:46:14.475Z,3.33
2018-05-03T22:48:42.022Z,3.77
2018-05-03T22:51:09.805Z,3.47
2018-05-03T22:53:37.596Z,3.67
2018-05-03T22:56:05.240Z,4.20
2018-05-03T22:58:33.031Z,3.80
2018-05-03T23:01:00.583Z,4.00
2018-05-03T23:03:28.339Z,4.00
2018-05-03T23:05:56.401Z,3.33
2018-05-03T23:08:24.014Z,3.47
2018-05-03T23:10:55.677Z,3.87
2018-05-03T23:13:24.999Z,3.63
2018-05-03T23:15:53.300Z,3.10
2018-05-03T23:18:21.945Z,3.67
2018-05-03T23:20:50.307Z,3.30
2018-05-03T23:23:18.734Z,3.53
2018-05-03T23:25:46.458Z,3.30
2018-05-03T23:28:14.514Z,3.47
2018-05-03T23:30:43.219Z,2.67
2018-05-03T23:33:11.433Z,3.20
2018-05-03T23:35:39.016Z,3.13
2018-05-03T23:38:07.099Z,3.20
2018-05-03T23:40:34.619Z,2.90
2018-05-03T23:43:02.174Z,3.20
2018-05-03T23:45:30.129Z,3.00
2018-05-03T23:47:58.402Z,3.60
2018-05-03T23:50:26.653Z,3.30
2018-05-03T23:52:54.831Z,3.07
2018-05-03T23:55:23.030Z,2.87
2018-05-03T23:57:51.408Z,3.27
